createdAt,value
2023-03-27T00:01:06.444Z,51.64
2023-03-27T00:03:32.870Z,51.99
2023-03-27T00:05:59.190Z,52.10
2023-03-27T00:08:25.503Z,52.46
2023-03-27T00:10:51.861Z,52.20
2023-03-27T00:13:18.243Z,52.03
2023-03-27T00:15:44.589Z,51.75
2023-03-27T00:18:10.949Z,51.67
2023-03-27T00:20:37.359Z,51.51
2023-03-27T00:23:03.682Z,51.74
2023-03-27T00:25:30.017Z,52.02
2023-03-27T00:27:56.365Z,52.21
2023-03-27T00:30:22.736Z,52.20
2023-03-27T00:32:49.117Z,52.42
2023-03-27T00:35:15.486Z,52.66
2023-03-27T00:37:41.791Z,53.06
2023-03-27T00:40:08.231Z,53.83
2023-03-27T00:42:34.525Z,54.57
2023-03-27T00:45:00.914Z,55.29
2023-03-27T00:47:27.299Z,55.95
2023-03-27T00:49:53.698Z,56.53
2023-03-27T00:52:20.012Z,56.85
2023-03-27T00:54:46.364Z,57.02
2023-03-27T00:57:12.804Z,57.11
2023-03-27T00:59:39.068Z,57.38
2023-03-27T01:02:05.385Z,57.28
2023-03-27T01:04:31.761Z,57.07
2023-03-27T01:06:58.154Z,57.61
2023-03-27T01:09:24.496Z,57.68
2023-03-27T01:11:50.865Z,57.95
2023-03-27T01:14:17.256Z,57.67
2023-03-27T01:16:43.598Z,57.67
2023-03-27T01:19:10.046Z,57.09
2023-03-27T01:21:36.421Z,57.21
2023-03-27T01:24:02.800Z,56.98
2023-03-27T01:26:36.732Z,55.80
2023-03-27T01:28:55.540Z,55.58
2023-03-27T01:31:23.128Z,56.36
2023-03-27T01:33:48.348Z,56.26
2023-03-27T01:36:14.775Z,56.04
2023-03-27T01:38:41.275Z,56.33
2023-03-27T01:41:07.609Z,57.68
2023-03-27T01:43:33.998Z,56.50
2023-03-27T01:46:00.359Z,58.01
2023-03-27T01:48:26.750Z,55.94
2023-03-27T01:50:53.067Z,56.41
2023-03-27T01:53:19.453Z,56.67
2023-03-27T01:55:45.802Z,56.46
2023-03-27T01:58:12.172Z,56.11
2023-03-27T02:00:51.297Z,56.61
2023-03-27T02:03:04.927Z,57.22
2023-03-27T02:05:31.204Z,57.56
2023-03-27T02:07:57.626Z,57.66
2023-03-27T02:10:23.983Z,59.17
2023-03-27T02:12:50.353Z,58.05
2023-03-27T02:15:24.129Z,59.27
2023-03-27T02:17:43.038Z,58.31
2023-03-27T02:20:09.369Z,58.01
2023-03-27T02:22:37.787Z,58.25
2023-03-27T02:25:02.172Z,58.60
2023-03-27T02:27:28.598Z,58.30
2023-03-27T02:29:54.918Z,58.11
2023-03-27T02:32:21.381Z,58.88
2023-03-27T02:34:47.662Z,58.66
2023-03-27T02:37:13.998Z,58.92
2023-03-27T02:39:40.321Z,59.26
2023-03-27T02:42:06.710Z,58.91
2023-03-27T02:44:33.083Z,59.25
2023-03-27T02:46:59.418Z,59.44
2023-03-27T02:49:25.777Z,60.94
2023-03-27T02:51:52.145Z,60.52
2023-03-27T02:54:18.467Z,60.48
2023-03-27T02:56:44.829Z,60.05
2023-03-27T02:59:11.146Z,59.26
2023-03-27T03:01:37.722Z,61.09
2023-03-27T03:04:04.016Z,60.35
2023-03-27T03:06:30.372Z,60.83
2023-03-27T03:08:56.675Z,61.50
2023-03-27T03:11:23.022Z,61.24
2023-03-27T03:13:49.429Z,60.27
2023-03-27T03:16:15.817Z,60.18
2023-03-27T03:18:42.135Z,60.88
2023-03-27T03:21:10.896Z,61.25
2023-03-27T03:23:37.233Z,61.50
2023-03-27T03:26:03.554Z,61.59
2023-03-27T03:28:29.942Z,61.06
2023-03-27T03:30:56.437Z,61.77
2023-03-27T03:33:22.596Z,61.02
2023-03-27T03:35:49.023Z,60.71
2023-03-27T03:38:15.310Z,60.46
2023-03-27T03:40:41.690Z,57.33
2023-03-27T03:43:08.006Z,57.50
2023-03-27T03:45:34.348Z,57.09
2023-03-27T03:48:00.741Z,56.86
2023-03-27T03:50:27.081Z,55.08
2023-03-27T03:52:53.415Z,56.76
2023-03-27T03:55:19.897Z,57.11
2023-03-27T03:57:46.233Z,56.49
2023-03-27T04:00:12.587Z,56.41
2023-03-27T04:02:39.095Z,54.04
2023-03-27T04:05:09.526Z,55.41
2023-03-27T04:07:31.712Z,56.12
2023-03-27T04:09:58.076Z,56.17
2023-03-27T04:12:24.383Z,56.08
2023-03-27T04:14:50.868Z,55.83
2023-03-27T04:17:17.192Z,56.42
2023-03-27T04:19:43.541Z,56.98
2023-03-27T04:22:09.855Z,57.48
2023-03-27T04:24:36.242Z,57.46
2023-03-27T04:27:02.547Z,57.86
2023-03-27T04:29:28.965Z,57.18
2023-03-27T04:31:55.317Z,57.08
2023-03-27T04:34:21.714Z,56.44
2023-03-27T04:36:48.113Z,56.24
2023-03-27T04:39:14.439Z,57.29
2023-03-27T04:41:40.842Z,56.96
2023-03-27T04:44:07.247Z,56.93
2023-03-27T04:46:33.637Z,57.03
2023-03-27T04:49:00.215Z,56.72
2023-03-27T04:51:26.609Z,56.19
2023-03-27T04:53:52.964Z,53.95
2023-03-27T04:56:19.390Z,53.09
2023-03-27T04:58:45.751Z,52.55
2023-03-27T05:01:12.360Z,51.24
2023-03-27T05:03:38.677Z,50.54
2023-03-27T05:06:05.012Z,50.37
2023-03-27T05:08:31.406Z,50.08
2023-03-27T05:10:57.897Z,49.23
2023-03-27T05:13:24.109Z,48.22
2023-03-27T05:15:50.498Z,47.75
2023-03-27T05:18:16.863Z,47.36
2023-03-27T05:20:43.278Z,47.76
2023-03-27T05:23:10.667Z,47.44
2023-03-27T05:25:37.021Z,47.41
2023-03-27T05:28:03.670Z,47.46
2023-03-27T05:30:30.025Z,47.34
2023-03-27T05:32:56.422Z,47.39
2023-03-27T05:35:22.723Z,47.54
2023-03-27T05:37:49.034Z,47.35
2023-03-27T05:40:15.401Z,47.56
2023-03-27T05:42:41.770Z,47.35
2023-03-27T05:45:08.124Z,46.42
2023-03-27T05:47:34.558Z,46.02
2023-03-27T05:50:00.894Z,46.25
2023-03-27T05:52:28.846Z,45.93
2023-03-27T05:54:53.652Z,44.93
2023-03-27T05:57:20.013Z,45.55
2023-03-27T05:59:46.330Z,45.95
2023-03-27T06:02:12.770Z,46.18
2023-03-27T06:04:39.138Z,46.40
2023-03-27T06:07:05.467Z,45.90
2023-03-27T06:09:34.581Z,45.61
2023-03-27T06:12:00.985Z,46.01
2023-03-27T06:14:27.299Z,46.28
2023-03-27T06:16:56.059Z,46.07
2023-03-27T06:19:22.417Z,45.72
2023-03-27T06:21:48.858Z,45.43
2023-03-27T06:24:15.232Z,45.17
2023-03-27T06:26:41.602Z,45.18
2023-03-27T06:29:08.671Z,44.85
2023-03-27T06:31:34.534Z,47.41
2023-03-27T06:34:00.775Z,49.18
2023-03-27T06:36:27.404Z,49.19
2023-03-27T06:38:53.705Z,49.64
2023-03-27T06:41:32.262Z,49.99
2023-03-27T06:43:59.685Z,50.20
2023-03-27T06:46:35.296Z,49.95
2023-03-27T06:48:53.556Z,49.63
2023-03-27T06:51:19.934Z,49.08
2023-03-27T06:53:46.362Z,48.91
2023-03-27T06:56:12.792Z,48.43
2023-03-27T06:58:39.460Z,48.27
2023-03-27T07:01:05.868Z,47.75
2023-03-27T07:03:32.246Z,46.33
2023-03-27T07:05:59.132Z,44.58
2023-03-27T07:08:25.629Z,42.84
2023-03-27T07:11:07.445Z,42.63
2023-03-27T07:13:18.063Z,41.80
2023-03-27T07:15:44.541Z,40.66
2023-03-27T07:18:10.894Z,41.01
2023-03-27T07:20:37.219Z,41.94
2023-03-27T07:23:03.666Z,41.17
2023-03-27T07:25:30.031Z,40.87
2023-03-27T07:27:56.458Z,40.96
2023-03-27T07:30:22.820Z,42.59
2023-03-27T07:32:49.241Z,43.77
2023-03-27T07:35:15.563Z,44.60
2023-03-27T07:37:41.873Z,45.73
2023-03-27T07:40:08.302Z,46.40
2023-03-27T07:42:34.724Z,46.83
2023-03-27T07:45:02.316Z,46.43
2023-03-27T07:47:27.432Z,47.01
2023-03-27T07:49:56.249Z,46.77
2023-03-27T07:52:22.640Z,47.62
2023-03-27T07:54:49.123Z,48.33
2023-03-27T07:57:15.523Z,48.89
2023-03-27T07:59:42.143Z,49.02
2023-03-27T08:02:08.489Z,49.30
2023-03-27T08:04:34.942Z,50.06
2023-03-27T08:07:03.414Z,50.22
2023-03-27T08:09:29.745Z,50.53
2023-03-27T08:11:56.407Z,50.81
2023-03-27T08:14:22.787Z,50.57
2023-03-27T08:16:49.180Z,50.48
2023-03-27T08:19:15.597Z,50.59
2023-03-27T08:21:41.933Z,50.24
2023-03-27T08:24:08.339Z,50.22
2023-03-27T08:26:34.639Z,50.54
2023-03-27T08:29:01.055Z,50.42
2023-03-27T08:31:27.424Z,50.90
2023-03-27T08:33:53.823Z,50.84
2023-03-27T08:36:20.218Z,51.17
2023-03-27T08:38:46.517Z,51.82
2023-03-27T08:41:12.876Z,52.15
2023-03-27T08:43:39.532Z,52.46
2023-03-27T08:46:05.955Z,52.39
2023-03-27T08:48:32.259Z,52.47
2023-03-27T08:50:58.630Z,52.80
2023-03-27T08:53:24.964Z,52.57
2023-03-27T08:55:51.379Z,52.70
2023-03-27T08:58:17.802Z,51.67
2023-03-27T09:00:44.180Z,50.95
2023-03-27T09:03:10.692Z,50.39
2023-03-27T09:05:36.862Z,49.68
2023-03-27T09:08:03.226Z,48.55
2023-03-27T09:10:29.617Z,47.72
2023-03-27T09:12:56.004Z,47.80
2023-03-27T09:15:22.377Z,47.47
2023-03-27T09:17:48.810Z,45.16
2023-03-27T09:20:15.093Z,44.02
2023-03-27T09:22:41.468Z,42.79
2023-03-27T09:25:07.902Z,41.89
2023-03-27T09:27:38.074Z,40.24
2023-03-27T09:30:05.896Z,39.82
2023-03-27T09:32:33.235Z,40.56
2023-03-27T09:34:57.288Z,41.95
2023-03-27T09:37:23.694Z,43.48
2023-03-27T09:39:50.110Z,43.20
2023-03-27T09:42:16.425Z,43.60
2023-03-27T09:44:43.197Z,43.93
2023-03-27T09:47:09.929Z,44.04
2023-03-27T09:49:36.096Z,44.19
2023-03-27T09:52:02.484Z,44.10
2023-03-27T09:54:29.910Z,43.91
2023-03-27T09:56:56.383Z,43.91
2023-03-27T09:59:22.699Z,43.72
2023-03-27T10:01:49.023Z,43.80
2023-03-27T10:04:15.468Z,43.92
2023-03-27T10:06:42.019Z,44.10
2023-03-27T10:09:08.388Z,43.84
2023-03-27T10:11:34.754Z,44.15
2023-03-27T10:14:01.123Z,44.03
2023-03-27T10:16:27.603Z,44.73
2023-03-27T10:18:53.859Z,44.96
2023-03-27T10:21:20.161Z,45.72
2023-03-27T10:23:46.593Z,46.44
2023-03-27T10:26:12.890Z,44.82
2023-03-27T10:28:39.304Z,45.85
2023-03-27T10:31:05.724Z,46.37
2023-03-27T10:33:32.117Z,46.25
2023-03-27T10:35:58.611Z,46.29
2023-03-27T10:38:24.950Z,45.95
2023-03-27T10:40:51.272Z,46.10
2023-03-27T10:43:17.754Z,46.16
2023-03-27T10:45:44.250Z,46.49
2023-03-27T10:48:10.690Z,46.39
2023-03-27T10:50:37.048Z,45.99
2023-03-27T10:53:03.441Z,45.82
2023-03-27T10:55:29.761Z,45.41
2023-03-27T10:57:56.165Z,45.52
2023-03-27T11:00:22.565Z,45.39
2023-03-27T11:02:49.093Z,45.38
2023-03-27T11:05:15.407Z,44.98
2023-03-27T11:07:41.801Z,44.81
2023-03-27T11:10:08.194Z,45.97
2023-03-27T11:12:34.584Z,49.09
2023-03-27T11:15:01.054Z,51.72
2023-03-27T11:17:29.006Z,53.88
2023-03-27T11:19:53.922Z,55.53
2023-03-27T11:22:20.296Z,56.82
2023-03-27T11:24:46.642Z,58.10
2023-03-27T11:27:14.575Z,58.67
2023-03-27T11:29:39.543Z,60.24
2023-03-27T11:32:05.859Z,60.95
2023-03-27T11:34:32.198Z,62.05
2023-03-27T11:36:58.627Z,63.87
2023-03-27T11:39:24.991Z,64.66
2023-03-27T11:41:51.370Z,66.32
2023-03-27T11:44:17.733Z,67.04
2023-03-27T11:46:44.142Z,66.53
2023-03-27T11:49:10.463Z,66.71
2023-03-27T11:51:36.813Z,67.58
2023-03-27T11:54:03.250Z,68.30
2023-03-27T11:56:29.622Z,70.30
2023-03-27T11:58:55.995Z,73.21
2023-03-27T12:01:22.455Z,76.84
2023-03-27T12:03:48.935Z,83.99
2023-03-27T12:06:15.199Z,89.01
2023-03-27T12:08:42.650Z,92.21
2023-03-27T12:11:08.179Z,96.17
2023-03-27T12:13:41.291Z,100.00
2023-03-27T12:16:00.861Z,100.00
2023-03-27T12:18:35.399Z,100.00
2023-03-27T12:20:53.937Z,100.00
2023-03-27T12:23:20.095Z,100.00
2023-03-27T12:25:48.593Z,100.00
2023-03-27T12:28:22.038Z,100.00
2023-03-27T12:30:41.326Z,100.00
2023-03-27T12:33:10.184Z,100.00
2023-03-27T12:35:37.412Z,100.00
2023-03-27T12:38:03.788Z,100.00
2023-03-27T12:40:30.487Z,100.00
2023-03-27T12:42:56.834Z,100.00
2023-03-27T12:45:23.775Z,100.00
2023-03-27T12:47:50.268Z,100.00
2023-03-27T12:50:16.620Z,100.00
2023-03-27T12:52:43.040Z,100.00
2023-03-27T12:55:09.387Z,100.00
2023-03-27T12:57:36.857Z,100.00
2023-03-27T13:00:03.090Z,100.00
2023-03-27T13:02:29.588Z,100.00
2023-03-27T13:04:56.829Z,100.00
2023-03-27T13:07:23.548Z,100.00
2023-03-27T13:09:49.887Z,100.00
2023-03-27T13:12:16.233Z,100.00
2023-03-27T13:14:42.741Z,100.00
2023-03-27T13:17:09.100Z,100.00
2023-03-27T13:19:35.489Z,100.00
2023-03-27T13:22:01.839Z,100.00
2023-03-27T13:24:28.242Z,100.00
2023-03-27T13:26:54.848Z,100.00
2023-03-27T13:29:21.205Z,100.00
2023-03-27T13:31:47.548Z,100.00
2023-03-27T13:34:13.984Z,100.00
2023-03-27T13:36:40.258Z,100.00
2023-03-27T13:39:06.653Z,100.00
2023-03-27T13:41:33.116Z,100.00
2023-03-27T13:43:59.383Z,100.00
2023-03-27T13:46:25.882Z,100.00
2023-03-27T13:48:52.240Z,100.00
2023-03-27T13:51:18.951Z,100.00
2023-03-27T13:53:45.306Z,100.00
2023-03-27T13:56:11.825Z,100.00
2023-03-27T13:58:38.171Z,100.00
2023-03-27T14:01:04.540Z,100.00
2023-03-27T14:03:30.996Z,100.00
2023-03-27T14:05:57.768Z,100.00
2023-03-27T14:08:24.038Z,100.00
2023-03-27T14:10:50.444Z,100.00
2023-03-27T14:13:16.825Z,100.00
2023-03-27T14:15:43.149Z,100.00
2023-03-27T14:18:09.623Z,100.00
2023-03-27T14:20:35.888Z,100.00
2023-03-27T14:23:02.267Z,100.00
2023-03-27T14:25:28.619Z,100.00
2023-03-27T14:27:55.005Z,100.00
2023-03-27T14:30:21.478Z,100.00
2023-03-27T14:32:47.928Z,100.00
2023-03-27T14:35:14.195Z,100.00
2023-03-27T14:37:40.588Z,100.00
2023-03-27T14:40:06.971Z,100.00
2023-03-27T14:42:33.600Z,100.00
2023-03-27T14:44:59.698Z,100.00
2023-03-27T14:47:26.150Z,100.00
2023-03-27T14:49:52.492Z,100.00
2023-03-27T14:52:18.881Z,100.00
2023-03-27T14:54:54.672Z,100.00
2023-03-27T14:57:11.848Z,100.00
2023-03-27T14:59:38.130Z,100.00
2023-03-27T15:02:04.540Z,100.00
2023-03-27T15:04:30.988Z,100.00
2023-03-27T15:06:57.387Z,100.00
2023-03-27T15:09:23.741Z,100.00
2023-03-27T15:11:50.106Z,100.00
2023-03-27T15:14:16.655Z,100.00
2023-03-27T15:16:43.029Z,100.00
2023-03-27T15:19:09.354Z,100.00
2023-03-27T15:21:35.718Z,100.00
2023-03-27T15:24:02.113Z,100.00
2023-03-27T15:26:28.421Z,100.00
2023-03-27T15:28:54.741Z,100.00
2023-03-27T15:31:21.121Z,100.00
2023-03-27T15:33:47.424Z,100.00
2023-03-27T15:36:13.787Z,100.00
2023-03-27T15:38:40.159Z,100.00
2023-03-27T15:41:06.514Z,100.00
2023-03-27T15:43:32.899Z,100.00
2023-03-27T15:45:59.745Z,100.00
2023-03-27T15:48:25.876Z,100.00
2023-03-27T15:50:52.184Z,100.00
2023-03-27T15:53:18.570Z,100.00
2023-03-27T15:55:44.932Z,100.00
2023-03-27T15:58:11.345Z,100.00
2023-03-27T16:00:37.692Z,100.00
2023-03-27T16:03:04.090Z,100.00
2023-03-27T16:05:30.530Z,100.00
2023-03-27T16:07:56.859Z,100.00
2023-03-27T16:10:23.267Z,100.00
2023-03-27T16:12:49.673Z,100.00
2023-03-27T16:15:16.029Z,100.00
2023-03-27T16:17:42.426Z,100.00
2023-03-27T16:20:08.762Z,100.00
2023-03-27T16:22:35.105Z,100.00
2023-03-27T16:25:01.484Z,100.00
2023-03-27T16:27:27.892Z,100.00
2023-03-27T16:29:54.292Z,100.00
2023-03-27T16:32:20.618Z,100.00
2023-03-27T16:34:47.018Z,100.00
2023-03-27T16:37:13.378Z,100.00
2023-03-27T16:39:39.797Z,100.00
2023-03-27T16:42:08.666Z,100.00
2023-03-27T16:44:35.946Z,100.00
2023-03-27T16:47:03.412Z,100.00
2023-03-27T16:49:30.005Z,100.00
2023-03-27T16:51:56.361Z,100.00
2023-03-27T16:54:23.162Z,100.00
2023-03-27T16:56:49.556Z,100.00
2023-03-27T16:59:15.876Z,100.00
2023-03-27T17:01:42.208Z,100.00
2023-03-27T17:04:08.676Z,100.00
2023-03-27T17:06:34.986Z,100.00
2023-03-27T17:09:01.368Z,100.00
2023-03-27T17:11:27.906Z,100.00
2023-03-27T17:13:54.259Z,100.00
2023-03-27T17:16:20.620Z,100.00
2023-03-27T17:18:46.965Z,100.00
2023-03-27T17:21:13.322Z,100.00
2023-03-27T17:23:39.727Z,100.00
2023-03-27T17:26:06.131Z,100.00
2023-03-27T17:28:32.511Z,100.00
2023-03-27T17:31:04.769Z,100.00
2023-03-27T17:33:25.269Z,100.00
2023-03-27T17:35:51.624Z,100.00
2023-03-27T17:38:18.004Z,100.00
2023-03-27T17:40:44.385Z,100.00
2023-03-27T17:43:10.820Z,100.00
2023-03-27T17:45:37.185Z,100.00
2023-03-27T17:48:03.641Z,99.74
2023-03-27T17:50:29.996Z,99.35
2023-03-27T17:52:56.422Z,99.41
2023-03-27T17:55:22.769Z,99.13
2023-03-27T17:57:55.673Z,98.62
2023-03-27T18:00:15.525Z,98.04
2023-03-27T18:02:42.007Z,97.48
2023-03-27T18:05:08.246Z,96.88
2023-03-27T18:07:34.602Z,96.36
2023-03-27T18:10:00.977Z,95.60
2023-03-27T18:12:27.370Z,95.18
2023-03-27T18:14:53.836Z,95.03
2023-03-27T18:17:20.238Z,94.73
2023-03-27T18:19:46.573Z,93.14
2023-03-27T18:22:12.964Z,91.72
2023-03-27T18:24:39.406Z,91.23
2023-03-27T18:27:05.729Z,92.33
2023-03-27T18:29:32.079Z,94.46
2023-03-27T18:31:58.553Z,95.79
2023-03-27T18:34:24.832Z,96.77
2023-03-27T18:36:51.304Z,97.48
2023-03-27T18:39:17.624Z,98.12
2023-03-27T18:41:44.035Z,98.65
2023-03-27T18:44:10.411Z,98.76
2023-03-27T18:46:36.793Z,98.43
2023-03-27T18:49:13.605Z,97.83
2023-03-27T18:51:29.567Z,97.77
2023-03-27T18:53:55.927Z,99.02
2023-03-27T18:56:22.298Z,100.00
2023-03-27T18:58:48.749Z,100.00
2023-03-27T19:01:15.254Z,100.00
2023-03-27T19:03:41.540Z,100.00
2023-03-27T19:06:09.023Z,100.00
2023-03-27T19:08:35.394Z,100.00
2023-03-27T19:11:01.915Z,100.00
2023-03-27T19:13:28.173Z,100.00
2023-03-27T19:15:54.668Z,100.00
2023-03-27T19:18:21.120Z,100.00
2023-03-27T19:20:47.860Z,100.00
2023-03-27T19:23:14.587Z,100.00
2023-03-27T19:25:40.938Z,100.00
2023-03-27T19:28:07.366Z,100.00
2023-03-27T19:30:33.827Z,100.00
2023-03-27T19:33:00.239Z,100.00
2023-03-27T19:35:26.510Z,99.85
2023-03-27T19:37:52.822Z,100.00
2023-03-27T19:40:19.221Z,100.00
2023-03-27T19:42:45.566Z,98.82
2023-03-27T19:45:11.910Z,99.31
2023-03-27T19:47:38.391Z,99.82
2023-03-27T19:50:04.733Z,99.21
2023-03-27T19:52:31.116Z,98.66
2023-03-27T19:54:57.465Z,98.73
2023-03-27T19:57:23.939Z,98.19
2023-03-27T19:59:50.191Z,97.65
2023-03-27T20:02:16.674Z,96.77
2023-03-27T20:04:42.997Z,96.87
2023-03-27T20:07:09.372Z,96.32
2023-03-27T20:09:35.776Z,96.28
2023-03-27T20:12:02.223Z,96.24
2023-03-27T20:14:28.518Z,94.85
2023-03-27T20:16:54.873Z,94.67
2023-03-27T20:19:22.174Z,94.92
2023-03-27T20:21:47.629Z,94.76
2023-03-27T20:24:13.956Z,94.93
2023-03-27T20:26:40.370Z,94.40
2023-03-27T20:29:07.026Z,95.22
2023-03-27T20:31:33.396Z,96.29
2023-03-27T20:33:59.705Z,96.81
2023-03-27T20:36:26.139Z,96.54
2023-03-27T20:38:52.469Z,96.09
2023-03-27T20:41:18.825Z,96.20
2023-03-27T20:43:45.166Z,96.23
2023-03-27T20:46:11.505Z,96.60
2023-03-27T20:48:37.907Z,96.86
2023-03-27T20:51:04.593Z,96.82
2023-03-27T20:53:33.642Z,97.11
2023-03-27T20:56:00.127Z,97.65
2023-03-27T20:58:23.634Z,97.59
2023-03-27T21:00:50.078Z,97.36
2023-03-27T21:03:16.349Z,96.66
2023-03-27T21:05:42.753Z,97.49
2023-03-27T21:08:09.066Z,98.42
2023-03-27T21:10:35.562Z,99.20
2023-03-27T21:13:01.927Z,100.00
2023-03-27T21:15:28.284Z,100.00
2023-03-27T21:17:54.662Z,100.00
2023-03-27T21:20:21.030Z,100.00
2023-03-27T21:22:47.693Z,100.00
2023-03-27T21:25:14.080Z,100.00
2023-03-27T21:27:40.457Z,100.00
2023-03-27T21:30:06.850Z,100.00
2023-03-27T21:32:33.194Z,100.00
2023-03-27T21:34:59.560Z,100.00
2023-03-27T21:37:25.892Z,100.00
2023-03-27T21:39:52.299Z,100.00
2023-03-27T21:42:18.632Z,100.00
2023-03-27T21:44:49.674Z,100.00
2023-03-27T21:47:11.350Z,100.00
2023-03-27T21:49:37.737Z,100.00
2023-03-27T21:52:04.065Z,100.00
2023-03-27T21:54:30.433Z,100.00
2023-03-27T21:56:56.848Z,100.00
2023-03-27T21:59:23.174Z,100.00
2023-03-27T22:01:49.585Z,100.00
2023-03-27T22:04:16.259Z,100.00
2023-03-27T22:06:42.557Z,100.00
2023-03-27T22:09:08.931Z,100.00
2023-03-27T22:11:35.332Z,100.00
2023-03-27T22:14:01.666Z,100.00
2023-03-27T22:16:28.031Z,100.00
2023-03-27T22:18:54.396Z,100.00
2023-03-27T22:21:20.729Z,100.00
2023-03-27T22:23:47.096Z,100.00
2023-03-27T22:26:13.451Z,100.00
2023-03-27T22:28:39.835Z,100.00
2023-03-27T22:31:06.210Z,100.00
2023-03-27T22:33:32.580Z,100.00
2023-03-27T22:35:59.283Z,100.00
2023-03-27T22:38:25.337Z,100.00
2023-03-27T22:40:51.663Z,100.00
2023-03-27T22:43:22.820Z,100.00
2023-03-27T22:45:44.428Z,100.00
2023-03-27T22:48:13.013Z,100.00
2023-03-27T22:50:39.334Z,100.00
2023-03-27T22:53:05.785Z,100.00
2023-03-27T22:55:32.098Z,100.00
2023-03-27T22:57:58.568Z,100.00
2023-03-27T23:00:25.905Z,100.00
2023-03-27T23:02:52.315Z,100.00
2023-03-27T23:05:18.567Z,100.00
2023-03-27T23:07:44.980Z,100.00
2023-03-27T23:10:11.340Z,100.00
2023-03-27T23:12:37.723Z,100.00
2023-03-27T23:15:04.056Z,100.00
2023-03-27T23:17:30.544Z,100.00
2023-03-27T23:19:56.927Z,100.00
2023-03-27T23:22:23.297Z,100.00
2023-03-27T23:24:49.649Z,100.00
2023-03-27T23:27:16.053Z,100.00
2023-03-27T23:29:42.376Z,100.00
2023-03-27T23:32:09.148Z,100.00
2023-03-27T23:34:35.403Z,100.00
2023-03-27T23:37:01.782Z,100.00
2023-03-27T23:39:28.158Z,100.00
2023-03-27T23:41:54.509Z,100.00
2023-03-27T23:44:20.829Z,100.00
2023-03-27T23:46:47.208Z,100.00
2023-03-27T23:49:13.551Z,100.00
2023-03-27T23:51:39.873Z,100.00
2023-03-27T23:54:06.241Z,100.00
2023-03-27T23:56:32.635Z,100.00
2023-03-27T23:58:58.951Z,100.00
